Time;durP1;ratioP1;P1;durP2;ratioP2;P2;SDS_P1;SDS_P2;PMS_P1;PMS_P2;Temp;Humidity;BMP_temperature;BMP_pressure;BME280_temperature;BME280_humidity;BME280_pressure;Samples;Min_cycle;Max_cycle;Signal;HPM_P1;HPM_P2
2021/10/20 00:00:10;;;;;;;6.90;6.07;;;14.20;99.90;;;;;;5079253;28;20469;-86
2021/10/20 00:02:37;;;;;;;6.53;5.93;;;;;;;;;;5065532;28;20492;-85
2021/10/20 00:05:04;;;;;;;5.80;5.30;;;;;;;;;;5061589;28;20442;-85
2021/10/20 00:07:31;;;;;;;6.50;5.90;;;;;;;;;;5061613;28;20773;-86
2021/10/20 00:09:58;;;;;;;6.37;5.17;;;;;;;;;;5060713;28;20477;-86
2021/10/20 00:12:25;;;;;;;7.43;6.77;;;;;;;;;;5061937;28;20451;-86
2021/10/20 00:14:52;;;;;;;10.70;5.87;;;;;;;;;;5061623;28;20804;-87
2021/10/20 00:17:21;;;;;;;8.70;6.20;;;;;;;;;;5061639;28;20501;-86
2021/10/20 00:19:55;;;;;;;6.57;5.53;;;;;;;;;;5062396;28;20438;-86
2021/10/20 00:22:22;;;;;;;6.80;6.00;;;;;;;;;;5061723;28;20439;-87
2021/10/20 00:24:49;;;;;;;8.90;6.90;;;;;;;;;;5060749;28;20421;-87
2021/10/20 00:27:16;;;;;;;8.73;6.07;;;;;;;;;;5063408;28;20463;-87
2021/10/20 00:29:43;;;;;;;8.50;6.50;;;;;;;;;;5063806;28;20476;-86
2021/10/20 00:32:09;;;;;;;7.27;5.93;;;;;;;;;;5061994;28;20426;-86
2021/10/20 00:34:38;;;;;;;6.17;5.57;;;;;;;;;;5057362;28;20470;-86
2021/10/20 00:37:05;;;;;;;6.70;6.10;;;;;;;;;;5057240;28;20510;-86
2021/10/20 00:39:32;;;;;;;7.27;6.67;;;;;;;;;;5058158;28;20921;-86
2021/10/20 00:41:59;;;;;;;6.87;6.17;;;;;;;;;;5058427;28;20855;-86
2021/10/20 00:44:26;;;;;;;6.23;5.63;;;;;;;;;;5058369;28;20446;-86
2021/10/20 00:46:53;;;;;;;8.07;7.00;;;;;;;;;;5059478;28;20474;-86
2021/10/20 00:49:20;;;;;;;7.53;6.37;;;;;;;;;;5059844;28;20476;-87
2021/10/20 00:51:48;;;;;;;8.40;6.40;;;14.10;99.90;;;;;;5061237;28;20442;-86
2021/10/20 00:54:15;;;;;;;11.20;7.47;;;;;;;;;;5060436;28;20477;-86
2021/10/20 00:56:41;;;;;;;8.67;7.80;;;;;;;;;;5059958;28;20528;-86
2021/10/20 00:59:08;;;;;;;14.40;7.90;;;;;;;;;;5071427;28;20446;-86
2021/10/20 01:01:37;;;;;;;9.20;8.30;;;;;;;;;;5076578;28;20430;-86
2021/10/20 01:04:04;;;;;;;9.63;8.50;;;;;;;;;;5077152;28;20444;-86
2021/10/20 01:06:33;;;;;;;11.40;8.70;;;;;;;;;;5076995;28;20481;-86
2021/10/20 01:09:02;;;;;;;9.83;8.80;;;;;;;;;;5065833;28;20448;-87
2021/10/20 01:11:29;;;;;;;10.80;9.20;;;;;;;;;;5059444;28;20478;-87
2021/10/20 01:13:56;;;;;;;10.30;8.60;;;;;;;;;;5059047;28;20500;-87
2021/10/20 01:16:23;;;;;;;12.63;10.37;;;;;;;;;;5058921;28;20543;-86
2021/10/20 01:18:50;;;;;;;11.10;8.90;;;;;;;;;;5065785;28;20434;-87
2021/10/20 01:21:19;;;;;;;10.03;9.03;;;;;;;;;;5076441;28;20457;-85
2021/10/20 01:23:47;;;;;;;14.17;10.47;;;;;;;;;;5057239;28;20848;-85
2021/10/20 01:26:14;;;;;;;13.53;9.57;;;;;;;;;;5057057;28;20437;-86
2021/10/20 01:28:41;;;;;;;13.13;9.97;;;;;;;;;;5057981;28;20450;-86
2021/10/20 01:31:08;;;;;;;9.53;8.50;;;;;;;;;;5057724;28;20986;-86
2021/10/20 01:33:35;;;;;;;13.47;10.33;;;;;;;;;;5058118;28;20481;-86
2021/10/20 01:36:02;;;;;;;15.33;9.77;;;;;;;;;;5057299;28;20529;-86
2021/10/20 01:38:30;;;;;;;11.67;10.23;;;14.10;99.90;;;;;;5063624;28;20442;-86
2021/10/20 01:40:57;;;;;;;12.83;10.47;;;;;;;;;;5075382;28;20430;-87
2021/10/20 01:43:24;;;;;;;11.57;9.77;;;;;;;;;;5060036;28;20488;-87
2021/10/20 01:45:52;;;;;;;12.87;9.97;;;;;;;;;;5058565;28;20463;-87
2021/10/20 01:48:19;;;;;;;13.90;10.63;;;;;;;;;;5059869;28;20462;-87
2021/10/20 01:50:46;;;;;;;9.97;8.97;;;;;;;;;;5058441;28;20513;-87
2021/10/20 01:53:13;;;;;;;11.40;9.37;;;;;;;;;;5059611;28;20472;-87
2021/10/20 01:55:42;;;;;;;14.70;10.17;;;;;;;;;;5059635;28;20527;-87
2021/10/20 01:58:09;;;;;;;13.30;10.30;;;;;;;;;;5059000;28;20500;-86
2021/10/20 02:00:36;;;;;;;10.67;9.57;;;;;;;;;;5060233;28;20454;-87
2021/10/20 02:03:03;;;;;;;13.20;9.87;;;;;;;;;;5067690;28;20427;-87
2021/10/20 02:05:30;;;;;;;12.57;9.83;;;;;;;;;;5077845;28;20458;-87
2021/10/20 02:07:56;;;;;;;13.17;9.07;;;;;;;;;;5068479;28;20435;-86
2021/10/20 02:10:23;;;;;;;10.27;8.50;;;;;;;;;;5060948;28;20445;-86
2021/10/20 02:12:52;;;;;;;10.17;8.97;;;;;;;;;;5060614;28;20445;-86
2021/10/20 02:15:19;;;;;;;12.20;9.40;;;;;;;;;;5060989;28;20501;-86
2021/10/20 02:17:46;;;;;;;10.23;8.47;;;;;;;;;;5061529;28;20481;-87
2021/10/20 02:20:14;;;;;;;10.90;9.40;;;13.80;99.90;;;;;;5076591;28;20446;-86
2021/10/20 02:22:44;;;;;;;10.23;9.00;;;13.80;99.90;;;;;;5078035;28;20443;-86
2021/10/20 02:25:11;;;;;;;10.33;9.30;;;;;;;;;;5074653;28;20416;-86
2021/10/20 02:27:38;;;;;;;13.40;9.80;;;;;;;;;;5065215;28;20446;-86
2021/10/20 02:30:08;;;;;;;10.83;8.70;;;13.70;99.90;;;;;;5066116;28;20541;-86
2021/10/20 02:32:35;;;;;;;14.57;10.17;;;;;;;;;;5068492;28;20438;-85
2021/10/20 02:35:04;;;;;;;11.80;9.80;;;;;;;;;;5071343;28;20938;-85
2021/10/20 02:37:31;;;;;;;10.97;9.57;;;;;;;;;;5070072;28;20478;-86
2021/10/20 02:39:58;;;;;;;13.07;9.70;;;;;;;;;;5066180;28;20809;-86
2021/10/20 02:42:25;;;;;;;9.83;8.83;;;;;;;;;;5065390;28;20445;-86
2021/10/20 02:44:52;;;;;;;10.03;8.83;;;;;;;;;;5064903;28;20442;-86
2021/10/20 02:47:20;;;;;;;17.80;10.10;;;13.70;99.90;;;;;;5064877;28;20465;-86
2021/10/20 02:49:47;;;;;;;12.47;8.73;;;;;;;;;;5065194;28;20442;-85
2021/10/20 02:52:14;;;;;;;10.40;9.40;;;;;;;;;;5064818;28;20997;-86
2021/10/20 02:54:41;;;;;;;12.87;8.80;;;;;;;;;;5064801;28;20446;-86
2021/10/20 02:57:09;;;;;;;12.20;9.83;;;;;;;;;;5063144;28;20482;-86
2021/10/20 02:59:35;;;;;;;12.00;8.70;;;;;;;;;;5063781;28;20496;-87
2021/10/20 03:02:12;;;;;;;10.38;9.13;;;;;;;;;;5063060;28;20436;-86
2021/10/20 03:04:43;;;;;;;12.03;9.27;;;;;;;;;;5064172;28;20191;-87
2021/10/20 03:07:10;;;;;;;12.23;9.80;;;;;;;;;;5066004;28;20496;-87
2021/10/20 03:09:40;;;;;;;14.43;11.43;;;;;;;;;;5064107;28;20481;-86
2021/10/20 03:12:07;;;;;;;10.00;9.00;;;;;;;;;;5064523;28;20913;-85
2021/10/20 03:14:34;;;;;;;10.63;9.53;;;;;;;;;;5063368;28;20474;-86
2021/10/20 03:17:01;;;;;;;14.03;10.83;;;;;;;;;;5063287;28;20504;-86
2021/10/20 03:19:28;;;;;;;10.13;9.13;;;;;;;;;;5063259;28;20442;-86
2021/10/20 03:21:56;;;;;;;12.10;8.97;;;;;;;;;;5062689;28;20442;-86
2021/10/20 03:24:23;;;;;;;12.15;10.10;;;;;;;;;;5061957;28;20482;-86
2021/10/20 03:26:50;;;;;;;10.00;9.00;;;;;;;;;;5062769;28;20277;-85
2021/10/20 03:29:17;;;;;;;9.50;8.50;;;;;;;;;;5062798;28;20450;-86
2021/10/20 03:31:44;;;;;;;10.13;9.10;;;;;;;;;;5062526;28;20809;-85
2021/10/20 03:34:11;;;;;;;9.63;8.63;;;;;;;;;;5063360;28;20922;-85
2021/10/20 03:36:38;;;;;;;14.20;9.43;;;;;;;;;;5062484;28;20536;-87
2021/10/20 03:39:06;;;;;;;11.20;9.13;;;13.50;99.90;;;;;;5063190;28;20446;-86
2021/10/20 03:41:33;;;;;;;11.13;9.70;;;;;;;;;;5062600;28;20485;-86
2021/10/20 03:44:00;;;;;;;12.57;9.73;;;;;;;;;;5062980;28;20472;-86
2021/10/20 03:46:27;;;;;;;9.00;8.10;;;;;;;;;;5069724;28;20466;-88
2021/10/20 03:48:54;;;;;;;10.87;9.50;;;;;;;;;;5078959;28;20432;-86
2021/10/20 03:51:21;;;;;;;11.40;8.80;;;;;;;;;;5078191;28;20405;-86
2021/10/20 03:53:48;;;;;;;11.77;9.90;;;;;;;;;;5064426;28;20437;-86
2021/10/20 03:56:16;;;;;;;10.83;9.43;;;;;;;;;;5063845;28;20473;-86
2021/10/20 03:58:46;;;;;;;14.27;9.17;;;;;;;;;;5063582;28;20457;-86
2021/10/20 04:01:13;;;;;;;9.43;8.53;;;;;;;;;;5064487;28;20461;-86
2021/10/20 04:03:40;;;;;;;11.10;10.00;;;;;;;;;;5063308;28;20443;-86
2021/10/20 04:06:08;;;;;;;10.80;9.40;;;;;;;;;;5103048;22;20473;-82
2021/10/20 04:08:35;;;;;;;9.47;8.20;;;;;;;;;;5078782;28;20407;-83
2021/10/20 04:11:02;;;;;;;8.13;7.33;;;;;;;;;;5079282;28;20423;-83
2021/10/20 04:13:30;;;;;;;10.37;9.30;;;13.50;99.90;;;;;;5076263;28;20456;-83
2021/10/20 04:15:57;;;;;;;9.40;8.40;;;;;;;;;;5073661;28;20470;-83
2021/10/20 04:18:24;;;;;;;10.37;9.27;;;;;;;;;;5065392;28;20485;-82
2021/10/20 04:20:51;;;;;;;11.63;9.30;;;;;;;;;;5072353;28;20450;-85
2021/10/20 04:23:18;;;;;;;10.50;9.50;;;;;;;;;;5069284;28;20913;-84
2021/10/20 04:25:45;;;;;;;10.27;9.03;;;;;;;;;;5063249;28;20485;-84
2021/10/20 04:28:12;;;;;;;10.13;9.20;;;;;;;;;;5065668;28;20438;-80
2021/10/20 04:30:40;;;;;;;11.97;9.30;;;13.40;99.90;;;;;;5071179;28;20446;-82
2021/10/20 04:33:07;;;;;;;10.83;8.63;;;;;;;;;;5066926;28;20492;-82
2021/10/20 04:35:34;;;;;;;15.10;9.90;;;;;;;;;;5063004;28;20515;-83
2021/10/20 04:38:02;;;;;;;13.30;9.80;;;;;;;;;;5060528;28;20477;-84
2021/10/20 04:40:29;;;;;;;8.67;7.73;;;;;;;;;;5065206;28;20449;-82
2021/10/20 04:42:57;;;;;;;10.10;9.00;;;;;;;;;;5077242;28;20442;-82
2021/10/20 04:45:24;;;;;;;18.03;9.63;;;;;;;;;;5073908;28;20449;-83
2021/10/20 04:47:52;;;;;;;10.13;8.80;;;13.40;99.90;;;;;;5070010;28;20949;-83
2021/10/20 04:50:19;;;;;;;10.77;8.73;;;;;;;;;;5068685;28;20549;-83
2021/10/20 04:52:46;;;;;;;12.33;9.63;;;;;;;;;;5065900;28;20446;-82
2021/10/20 04:55:13;;;;;;;9.80;8.53;;;;;;;;;;5070627;28;20447;-84
2021/10/20 04:57:40;;;;;;;9.17;8.30;;;;;;;;;;5065325;28;20997;-83
2021/10/20 05:00:08;;;;;;;11.23;8.03;;;13.40;99.90;;;;;;5067330;28;20462;-83
2021/10/20 05:02:36;;;;;;;9.20;8.30;;;;;;;;;;5060166;28;20535;-83
2021/10/20 05:05:05;;;;;;;10.23;8.13;;;12.80;99.90;;;;;;5061502;28;20446;-82
2021/10/20 05:07:32;;;;;;;8.10;7.10;;;;;;;;;;5067195;28;20525;-84
2021/10/20 05:09:59;;;;;;;11.93;8.40;;;;;;;;;;5071548;28;20469;-82
2021/10/20 05:12:26;;;;;;;9.83;8.90;;;;;;;;;;5066988;28;20504;-83
2021/10/20 05:14:53;;;;;;;9.00;8.10;;;;;;;;;;5058632;28;20445;-83
2021/10/20 05:17:20;;;;;;;10.23;8.60;;;;;;;;;;5064912;28;20866;-81
2021/10/20 05:19:47;;;;;;;14.10;8.37;;;;;;;;;;5064442;28;20451;-83
2021/10/20 05:22:15;;;;;;;11.07;8.53;;;13.30;99.90;;;;;;5062298;28;20434;-82
2021/10/20 05:24:42;;;;;;;9.53;8.57;;;;;;;;;;5071473;28;20438;-82
2021/10/20 05:27:09;;;;;;;9.00;8.10;;;;;;;;;;5075353;28;20457;-81
2021/10/20 05:29:37;;;;;;;8.40;7.43;;;;;;;;;;5075160;28;20456;-85
2021/10/20 05:32:04;;;;;;;10.40;8.50;;;;;;;;;;5076436;28;20444;-82
2021/10/20 05:34:31;;;;;;;8.53;7.73;;;;;;;;;;5075626;28;20442;-82
2021/10/20 05:36:58;;;;;;;7.47;6.77;;;;;;;;;;5075168;28;20507;-83
2021/10/20 05:39:26;;;;;;;7.93;7.13;;;13.30;99.90;;;;;;5067111;28;20473;-83
2021/10/20 05:41:53;;;;;;;14.33;8.20;;;;;;;;;;5062399;28;20450;-83
2021/10/20 05:44:20;;;;;;;9.80;8.00;;;;;;;;;;5058430;28;20454;-83
2021/10/20 05:46:49;;;;;;;10.40;7.77;;;;;;;;;;5058237;28;20507;-83
2021/10/20 05:49:16;;;;;;;7.47;6.67;;;;;;;;;;5060021;28;20450;-82
2021/10/20 05:51:43;;;;;;;8.10;7.30;;;;;;;;;;5058601;28;20454;-83
2021/10/20 05:54:10;;;;;;;9.80;7.57;;;;;;;;;;5058050;28;20424;-83
2021/10/20 05:56:38;;;;;;;7.53;6.87;;;13.40;99.90;;;;;;5068225;28;20462;-80
2021/10/20 05:59:05;;;;;;;7.97;7.17;;;;;;;;;;5066353;28;20460;-84
2021/10/20 06:01:32;;;;;;;8.70;7.90;;;;;;;;;;5059087;28;20524;-82
2021/10/20 06:03:59;;;;;;;9.40;7.93;;;;;;;;;;5058507;28;20866;-83
2021/10/20 06:06:26;;;;;;;11.73;7.30;;;;;;;;;;5058764;28;20474;-83
2021/10/20 06:08:53;;;;;;;7.20;6.50;;;;;;;;;;5060090;28;20472;-81
2021/10/20 06:11:20;;;;;;;10.40;6.30;;;;;;;;;;5060311;28;20938;-84
2021/10/20 06:13:49;;;;;;;10.80;7.43;;;13.40;99.90;;;;;;5060135;28;20427;-83
2021/10/20 06:16:16;;;;;;;7.03;6.30;;;;;;;;;;5058692;28;20492;-83
2021/10/20 06:18:43;;;;;;;7.13;6.43;;;;;;;;;;5061272;28;20480;-84
2021/10/20 06:21:10;;;;;;;6.70;6.07;;;;;;;;;;5061385;28;20508;-84
2021/10/20 06:23:36;;;;;;;9.57;6.80;;;;;;;;;;5060430;28;20450;-82
2021/10/20 06:26:03;;;;;;;7.23;6.53;;;;;;;;;;5059205;28;20466;-84
2021/10/20 06:28:31;;;;;;;6.43;5.60;;;;;;;;;;5058553;28;20462;-84
2021/10/20 06:30:58;;;;;;;9.97;7.40;;;13.60;99.90;;;;;;5058210;28;20919;-83
2021/10/20 06:33:25;;;;;;;7.97;6.10;;;;;;;;;;5059551;28;20477;-85
2021/10/20 06:35:54;;;;;;;9.37;5.93;;;;;;;;;;5058423;28;20496;-84
2021/10/20 06:38:21;;;;;;;34.50;22.03;;;;;;;;;;5058038;28;20897;-84
2021/10/20 06:40:49;;;;;;;12.33;7.43;;;;;;;;;;5068421;28;20511;-83
2021/10/20 06:43:16;;;;;;;6.57;5.70;;;;;;;;;;5077295;28;20455;-82
2021/10/20 06:45:43;;;;;;;6.97;5.30;;;;;;;;;;5068485;28;20462;-83
2021/10/20 06:48:11;;;;;;;5.60;5.10;;;13.70;99.90;;;;;;5072189;28;20450;-82
2021/10/20 06:50:38;;;;;;;5.80;5.30;;;;;;;;;;5077624;28;20422;-83
2021/10/20 06:53:05;;;;;;;5.67;5.17;;;;;;;;;;5077575;28;20450;-83
2021/10/20 06:55:32;;;;;;;7.30;5.60;;;;;;;;;;5073659;28;20464;-81
2021/10/20 06:57:59;;;;;;;5.63;4.87;;;;;;;;;;5077392;28;20485;-81
2021/10/20 07:00:26;;;;;;;5.33;4.77;;;;;;;;;;5075697;28;20426;-81
2021/10/20 07:02:53;;;;;;;9.10;5.37;;;;;;;;;;5074459;28;20474;-81
2021/10/20 07:05:21;;;;;;;7.60;5.77;;;13.90;99.90;;;;;;5068410;28;20442;-84
2021/10/20 07:07:48;;;;;;;5.13;4.63;;;;;;;;;;5068012;28;20439;-83
2021/10/20 07:10:15;;;;;;;5.73;5.20;;;;;;;;;;5064283;28;20434;-82
2021/10/20 07:12:42;;;;;;;6.80;5.50;;;;;;;;;;5071109;28;20513;-82
2021/10/20 07:15:10;;;;;;;6.33;5.73;;;14.00;99.90;;;;;;5063661;28;20462;-82
2021/10/20 07:17:38;;;;;;;11.47;5.90;;;;;;;;;;5063789;28;20486;-83
2021/10/20 07:20:06;;;;;;;6.23;5.30;;;14.00;99.90;;;;;;5063047;28;20457;-83
2021/10/20 07:22:38;;;;;;;5.80;4.73;;;14.00;99.90;;;;;;5061483;28;20504;-82
2021/10/20 07:25:05;;;;;;;7.90;5.43;;;;;;;;;;5064528;28;20425;-83
2021/10/20 07:27:34;;;;;;;6.17;5.60;;;;;;;;;;5064736;28;20458;-83
2021/10/20 07:30:01;;;;;;;8.90;5.67;;;;;;;;;;5073263;28;20474;-84
2021/10/20 07:32:28;;;;;;;7.83;4.50;;;;;;;;;;5073368;28;20457;-82
2021/10/20 07:34:55;;;;;;;5.53;4.47;;;;;;;;;;5073219;28;20446;-83
2021/10/20 07:37:22;;;;;;;5.43;4.93;;;;;;;;;;5071469;28;20473;-81
2021/10/20 07:39:50;;;;;;;8.73;5.33;;;14.30;99.90;;;;;;5073408;28;20458;-82
2021/10/20 07:42:17;;;;;;;4.67;3.90;;;;;;;;;;5075148;28;20401;-83
2021/10/20 07:44:45;;;;;;;5.53;5.03;;;;;;;;;;5076520;28;20453;-83
2021/10/20 07:47:12;;;;;;;5.60;4.17;;;;;;;;;;5080111;28;20513;-82
2021/10/20 07:49:39;;;;;;;4.50;3.93;;;;;;;;;;5077747;28;20477;-82
2021/10/20 07:52:06;;;;;;;6.30;4.27;;;;;;;;;;5070027;28;20417;-82
2021/10/20 07:54:33;;;;;;;4.77;4.30;;;;;;;;;;5068528;28;20813;-83
2021/10/20 07:57:01;;;;;;;9.17;6.00;;;14.60;99.90;;;;;;5065533;28;20466;-83
2021/10/20 07:59:28;;;;;;;5.97;4.80;;;;;;;;;;5073285;28;20488;-82
2021/10/20 08:01:55;;;;;;;5.50;4.80;;;;;;;;;;5073813;28;20439;-83
2021/10/20 08:04:22;;;;;;;4.70;4.30;;;;;;;;;;5065063;28;20449;-83
2021/10/20 08:06:49;;;;;;;9.77;4.60;;;;;;;;;;5061494;28;20978;-83
2021/10/20 08:09:16;;;;;;;6.13;4.13;;;;;;;;;;5061759;28;20469;-82
2021/10/20 08:11:43;;;;;;;5.00;4.60;;;14.80;99.90;;;;;;5060644;28;20500;-83
2021/10/20 08:14:11;;;;;;;5.03;4.07;;;14.90;99.90;;;;;;5060530;28;20522;-83
2021/10/20 08:16:38;;;;;;;5.73;3.40;;;;;;;;;;5063218;28;20462;-83
2021/10/20 08:19:05;;;;;;;5.00;4.40;;;;;;;;;;5063315;28;20478;-84
2021/10/20 08:21:32;;;;;;;4.53;4.13;;;;;;;;;;5063171;28;20477;-84
2021/10/20 08:23:59;;;;;;;4.53;4.20;;;;;;;;;;5064905;28;20472;-85
2021/10/20 08:26:26;;;;;;;4.43;4.03;;;;;;;;;;5063741;28;21013;-83
2021/10/20 08:28:53;;;;;;;4.40;4.00;;;;;;;;;;5064575;28;20439;-82
2021/10/20 08:31:22;;;;;;;5.37;4.80;;;15.10;99.90;;;;;;5064089;28;20515;-82
2021/10/20 08:33:49;;;;;;;4.00;3.67;;;;;;;;;;5063853;28;20450;-84
2021/10/20 08:36:15;;;;;;;4.63;4.23;;;;;;;;;;5062789;28;20466;-85
2021/10/20 08:38:42;;;;;;;4.27;3.43;;;;;;;;;;5062104;28;20896;-85
2021/10/20 08:41:10;;;;;;;5.70;4.10;;;15.40;99.90;;;;;;5062086;28;20858;-83
2021/10/20 08:43:38;;;;;;;7.20;5.47;;;15.40;99.90;;;;;;5061821;28;20822;-85
2021/10/20 08:46:05;;;;;;;4.87;4.47;;;;;;;;;;5060883;28;20840;-84
2021/10/20 08:48:33;;;;;;;5.40;3.87;;;15.50;99.90;;;;;;5060674;28;20855;-84
2021/10/20 08:51:02;;;;;;;5.70;4.23;;;15.90;99.90;;;;;;5060543;28;20453;-84
2021/10/20 08:53:29;;;;;;;4.30;3.87;;;;;;;;;;5059459;28;20425;-84
2021/10/20 08:55:59;;;;;;;6.13;4.10;;;15.60;99.90;;;;;;5066515;28;20470;-84
2021/10/20 08:58:27;;;;;;;5.20;4.60;;;;;;;;;;5071022;28;20502;-83
2021/10/20 09:00:54;;;;;;;6.20;3.60;;;;;;;;;;5066417;28;20500;-82
2021/10/20 09:03:21;;;;;;;8.53;3.97;;;;;;;;;;5065171;28;20446;-82
2021/10/20 09:05:49;;;;;;;5.37;3.20;;;15.60;99.90;;;;;;5070058;28;20474;-82
2021/10/20 09:08:16;;;;;;;5.97;5.37;;;;;;;;;;5060865;28;20469;-82
2021/10/20 09:10:45;;;;;;;7.33;3.77;;;15.70;99.90;;;;;;5061171;28;20946;-83
2021/10/20 09:13:13;;;;;;;5.90;4.30;;;15.70;99.90;;;;;;5059967;28;20450;-82
2021/10/20 09:15:41;;;;;;;7.60;3.80;;;;;;;;;;5066976;28;20451;-82
2021/10/20 09:18:11;;;;;;;5.00;3.80;;;15.70;99.90;;;;;;5060403;28;20514;-82
2021/10/20 09:20:39;;;;;;;4.00;3.60;;;15.70;99.90;;;;;;5059078;28;20442;-84
2021/10/20 09:23:11;;;;;;;6.63;3.93;;;15.70;99.90;;;;;;5059437;28;20450;-84
2021/10/20 09:25:42;;;;;;;4.60;4.00;;;15.70;99.90;;;;;;5058399;28;20484;-84
2021/10/20 09:28:10;;;;;;;5.40;4.10;;;15.60;99.90;;;;;;5057865;28;20938;-84
2021/10/20 09:30:38;;;;;;;4.60;4.10;;;15.50;99.90;;;;;;5058693;28;20469;-83
2021/10/20 09:33:07;;;;;;;5.17;4.67;;;15.20;99.90;;;;;;5058741;28;20450;-83
2021/10/20 09:35:34;;;;;;;7.00;4.70;;;;;;;;;;5058327;28;20453;-83
2021/10/20 09:38:02;;;;;;;6.53;4.37;;;14.90;99.90;;;;;;5058182;28;20996;-82
2021/10/20 09:40:36;;;;;;;4.83;4.30;;;14.80;99.90;;;;;;5060360;28;20435;-83
2021/10/20 09:43:04;;;;;;;5.70;4.80;;;14.70;99.90;;;;;;5059495;28;20429;-82
2021/10/20 09:45:35;;;;;;;5.23;4.83;;;14.60;99.90;;;;;;5058969;28;20450;-84
2021/10/20 09:48:16;;;;;;;6.03;4.80;;;14.60;99.90;;;;;;5058983;28;20961;-83
2021/10/20 09:50:58;;;;;;;5.03;4.53;;;14.50;99.90;;;;;;5063909;28;20889;-84
2021/10/20 09:53:26;;;;;;;5.67;4.80;;;14.50;99.90;;;;;;5061034;28;20415;-82
2021/10/20 09:55:54;;;;;;;4.33;4.03;;;14.60;99.90;;;;;;5069260;28;20501;-80
2021/10/20 09:58:24;;;;;;;5.20;4.70;;;;;;;;;;5076716;28;20454;-81
2021/10/20 10:00:54;;;;;;;6.53;4.70;;;14.40;99.90;;;;;;5077695;28;20430;-82
2021/10/20 10:03:21;;;;;;;5.20;4.70;;;;;;;;;;5066376;28;20434;-82
2021/10/20 10:08:28;;;;;;;6.20;5.17;;;;;;;;;;5100965;22;20573;-87
2021/10/20 10:10:57;;;;;;;10.40;6.80;;;;;;;;;;5064247;28;20438;-87
2021/10/20 10:13:41;;;;;;;20.50;9.30;;;;;;;;;;5065047;28;20864;-88
2021/10/20 10:16:09;;;;;;;11.37;6.40;;;;;;;;;;5063114;28;20999;-87
2021/10/20 10:21:40;;;;;;;5.83;5.23;;;;;;;;;;5053091;28;20446;-87
2021/10/20 10:24:12;;;;;;;6.60;5.63;;;;;;;;;;5061231;28;20542;-87
2021/10/20 10:27:04;;;;;;;6.97;6.27;;;;;;;;;;5061699;28;20489;-87
2021/10/20 10:29:36;;;;;;;9.57;5.00;;;;;;;;;;5062897;28;20430;-87
2021/10/20 10:32:09;;;;;;;5.30;4.80;;;;;;;;;;5064712;28;20484;-87
2021/10/20 10:34:38;;;;;;;9.40;5.40;;;13.80;99.90;;;;;;5065446;28;20443;-86
2021/10/20 10:37:06;;;;;;;5.70;5.20;;;;;;;;;;5065427;28;20501;-86
2021/10/20 10:39:34;;;;;;;6.60;5.23;;;;;;;;;;5067024;28;20470;-86
2021/10/20 10:42:04;;;;;;;6.20;5.47;;;;;;;;;;5074105;28;20430;-89
2021/10/20 10:44:31;;;;;;;6.10;5.07;;;;;;;;;;5081050;28;20404;-87
2021/10/20 10:47:10;;;;;;;5.60;5.10;;;;;;;;;;5068775;28;20934;-87
2021/10/20 10:49:38;;;;;;;8.07;5.20;;;;;;;;;;5065925;28;20445;-87
2021/10/20 10:52:23;;;;;;;7.27;6.30;;;14.20;99.90;;;;;;5063127;28;20457;-88
2021/10/20 10:55:16;;;;;;;9.00;7.23;;;14.20;99.90;;;;;;5063443;28;20894;-87
2021/10/20 10:57:50;;;;;;;7.57;6.50;;;14.30;99.90;;;;;;5064145;28;20437;-87
2021/10/20 11:00:43;;;;;;;7.00;5.77;;;14.30;99.90;;;;;;5064075;28;20509;-87
2021/10/20 11:03:27;;;;;;;6.90;5.90;;;14.40;99.90;;;;;;5064689;28;20446;-87
2021/10/20 11:06:03;;;;;;;12.40;5.83;;;14.40;99.90;;;;;;5064084;28;20592;-87
2021/10/20 11:08:31;;;;;;;7.20;5.83;;;;;;;;;;5076441;28;20492;-87
2021/10/20 11:10:59;;;;;;;9.30;6.20;;;;;;;;;;5080339;28;20469;-87
2021/10/20 11:13:27;;;;;;;7.83;6.33;;;;;;;;;;5068331;28;20446;-86
2021/10/20 11:15:55;;;;;;;7.37;5.80;;;;;;;;;;5064147;28;21016;-86
2021/10/20 11:18:24;;;;;;;9.53;5.80;;;14.50;99.90;;;;;;5074042;28;20450;-87
2021/10/20 11:20:55;;;;;;;6.13;5.53;;;14.40;99.90;;;;;;5080023;28;20442;-89
2021/10/20 11:23:25;;;;;;;7.07;5.90;;;;;;;;;;5079597;28;20433;-86
2021/10/20 11:25:52;;;;;;;7.60;6.63;;;;;;;;;;5078307;28;20417;-86
2021/10/20 11:28:19;;;;;;;8.63;5.60;;;;;;;;;;5078681;28;20509;-86
2021/10/20 11:30:47;;;;;;;7.20;6.47;;;;;;;;;;5078598;28;20442;-86
2021/10/20 11:33:16;;;;;;;6.23;5.57;;;14.70;99.90;;;;;;5065150;28;20421;-86
2021/10/20 11:35:45;;;;;;;6.20;5.27;;;;;;;;;;5063090;28;20425;-87
2021/10/20 11:38:14;;;;;;;5.87;4.90;;;14.80;99.90;;;;;;5062030;28;20438;-87
2021/10/20 11:40:43;;;;;;;6.03;5.43;;;14.80;99.90;;;;;;5062097;28;20473;-87
2021/10/20 11:43:16;;;;;;;6.60;5.00;;;14.90;99.90;;;;;;5060714;28;20466;-87
2021/10/20 11:45:43;;;;;;;7.97;5.17;;;;;;;;;;5062266;28;20413;-88
2021/10/20 11:48:15;;;;;;;7.17;6.43;;;15.00;99.90;;;;;;5071054;28;20478;-87
2021/10/20 11:50:42;;;;;;;6.87;5.73;;;;;;;;;;5070351;28;20536;-86
2021/10/20 11:53:09;;;;;;;7.10;5.73;;;;;;;;;;5067763;28;20450;-87
2021/10/20 11:55:42;;;;;;;5.77;5.20;;;15.20;99.90;;;;;;5067683;28;20457;-87
2021/10/20 11:58:17;;;;;;;7.93;6.70;;;15.20;99.90;;;;;;5064420;28;20784;-87
2021/10/20 12:00:50;;;;;;;7.40;6.03;;;15.30;99.90;;;;;;5070118;28;20977;-87
2021/10/20 12:03:18;;;;;;;6.97;5.50;;;;;;;;;;5071611;28;20435;-86
2021/10/20 12:05:47;;;;;;;6.23;5.63;;;;;;;;;;5076141;28;20454;-86
2021/10/20 12:08:15;;;;;;;6.77;6.03;;;;;;;;;;5071987;28;20499;-85
2021/10/20 12:10:42;;;;;;;6.83;5.57;;;;;;;;;;5071535;28;20444;-86
2021/10/20 12:13:09;;;;;;;5.70;5.20;;;;;;;;;;5067675;28;20472;-88
2021/10/20 12:15:41;;;;;;;10.13;4.70;;;15.80;99.90;;;;;;5067966;28;20439;-86
2021/10/20 12:18:09;;;;;;;8.57;5.23;;;15.80;99.90;;;;;;5067617;28;20427;-87
2021/10/20 12:20:38;;;;;;;5.67;4.97;;;15.80;99.90;;;;;;5069879;28;20497;-91
2021/10/20 12:23:07;;;;;;;6.50;5.20;;;15.90;99.90;;;;;;5062088;28;20481;-85
2021/10/20 12:25:35;;;;;;;6.00;5.37;;;;;;;;;;5059268;28;20458;-86
2021/10/20 12:28:02;;;;;;;7.10;4.67;;;;;;;;;;5058734;28;20998;-86
2021/10/20 12:30:29;;;;;;;8.07;6.83;;;16.10;99.90;;;;;;5058372;28;20442;-86
2021/10/20 12:32:56;;;;;;;5.80;5.20;;;;;;;;;;5061576;28;20435;-86
2021/10/20 12:35:23;;;;;;;4.57;4.10;;;;;;;;;;5076190;28;20446;-86
2021/10/20 12:37:52;;;;;;;4.90;4.40;;;;;;;;;;5078254;28;20459;-87
2021/10/20 12:40:22;;;;;;;8.17;5.40;;;16.40;99.90;;;;;;5076429;28;20492;-86
2021/10/20 12:42:51;;;;;;;6.30;5.17;;;16.50;99.90;;;;;;5065006;28;20461;-86
2021/10/20 12:45:19;;;;;;;5.40;4.47;;;;;;;;;;5063158;28;20472;-86
2021/10/20 12:47:49;;;;;;;4.80;4.40;;;16.70;99.90;;;;;;5062792;28;20523;-87
2021/10/20 12:50:17;;;;;;;5.70;4.77;;;16.90;99.90;;;;;;5063754;28;20450;-87
2021/10/20 12:52:45;;;;;;;4.43;4.00;;;;;;;;;;5065857;28;20529;-87
2021/10/20 12:55:14;;;;;;;5.53;4.57;;;17.00;99.90;;;;;;5077681;28;20438;-89
2021/10/20 12:57:43;;;;;;;8.97;4.80;;;17.10;99.90;;;;;;5077695;28;20476;-86
2021/10/20 13:00:12;;;;;;;5.60;4.40;;;17.10;99.90;;;;;;5064912;28;20449;-86
2021/10/20 13:02:40;;;;;;;5.43;4.27;;;;;;;;;;5061765;28;20478;-86
2021/10/20 13:05:09;;;;;;;4.13;3.73;;;17.20;99.90;;;;;;5061159;28;20458;-86
2021/10/20 13:07:36;;;;;;;7.73;5.00;;;;;;;;;;5059571;28;20490;-86
2021/10/20 13:10:05;;;;;;;8.63;5.40;;;17.10;99.90;;;;;;5058985;28;20443;-86
2021/10/20 13:12:33;;;;;;;7.00;4.67;;;;;;;;;;5059105;28;20949;-86
2021/10/20 13:15:01;;;;;;;9.10;5.83;;;;;;;;;;5058425;28;20450;-87
2021/10/20 13:17:28;;;;;;;7.57;4.73;;;;;;;;;;5060263;28;20532;-87
2021/10/20 13:19:55;;;;;;;5.20;4.60;;;;;;;;;;5059679;28;20512;-86
2021/10/20 13:22:22;;;;;;;9.33;5.87;;;;;;;;;;5058810;28;20449;-86
2021/10/20 13:24:49;;;;;;;5.40;4.90;;;;;;;;;;5059663;28;20474;-86
2021/10/20 13:27:16;;;;;;;7.10;4.43;;;;;;;;;;5059730;28;20474;-86
2021/10/20 13:29:44;;;;;;;7.43;5.70;;;17.30;99.90;;;;;;5058300;28;20453;-86
2021/10/20 13:32:13;;;;;;;7.50;5.67;;;;;;;;;;5067267;28;20488;-87
2021/10/20 13:35:13;;;;;;;4.93;4.33;;;;;;;;;;5141381;27;1194135;-87
2021/10/20 13:37:40;;;;;;;7.30;5.30;;;;;;;;;;5140831;27;20248;-87
2021/10/20 13:40:08;;;;;;;5.43;4.87;;;17.20;99.90;;;;;;5140051;28;20443;-87
2021/10/20 13:42:35;;;;;;;5.80;5.30;;;;;;;;;;5139464;28;20959;-87
2021/10/20 13:45:04;;;;;;;9.00;6.40;;;;;;;;;;5142550;28;20439;-87
2021/10/20 13:47:31;;;;;;;22.90;13.00;;;;;;;;;;5151728;22;20460;-82
2021/10/20 13:49:58;;;;;;;6.83;5.23;;;;;;;;;;5080501;28;20434;-81
2021/10/20 13:52:26;;;;;;;9.90;5.63;;;17.70;99.90;;;;;;5082766;28;20514;-83
2021/10/20 13:54:53;;;;;;;9.83;5.20;;;;;;;;;;5085015;28;20481;-82
2021/10/20 13:57:20;;;;;;;8.10;5.00;;;;;;;;;;5088165;28;20465;-82
2021/10/20 13:59:48;;;;;;;6.00;5.00;;;;;;;;;;5086202;28;20433;-82
2021/10/20 14:02:15;;;;;;;8.43;5.50;;;;;;;;;;5089199;28;20915;-81
2021/10/20 14:04:42;;;;;;;6.57;4.53;;;;;;;;;;5089097;28;20515;-80
2021/10/20 14:07:10;;;;;;;6.70;4.37;;;;;;;;;;5083151;28;20442;-83
2021/10/20 14:09:38;;;;;;;4.87;4.47;;;17.80;99.90;;;;;;5077101;28;20979;-83
2021/10/20 14:12:06;;;;;;;6.40;5.27;;;17.80;99.90;;;;;;5074949;28;20447;-82
2021/10/20 14:14:33;;;;;;;5.47;4.97;;;;;;;;;;5075713;28;20445;-82
2021/10/20 14:17:00;;;;;;;5.70;5.10;;;;;;;;;;5075352;28;20419;-82